Date,TemperatureHighF,TemperatureAvgF,TemperatureLowF,DewpointHighF,DewpointAvgF,DewpointLowF,HumidityHigh,HumidityAvg,HumidityLow,PressureMaxIn,PressureMinIn,WindSpeedMaxMPH,WindSpeedAvgMPH,GustSpeedMaxMPH,PrecipitationSumIn
2013-12-1,42,34,24,30,28,23,96,77,60,29.96,29.71,6,3,0,0.00
2013-12-2,55,40,32,41,34,28,91,80,57,29.70,29.33,10,4,0,0.00
2013-12-3,43,38,34,40,37,34,99,97,89,29.46,29.32,7,3,0,0.00
2013-12-4,38,31,18,38,29,13,99,94,81,29.74,29.31,18,5,0,0.01
2013-12-5,18,13,7,13,6,0,81,71,63,30.22,29.75,19,12,0,0.00
2013-12-6,15,7,1,1,-2,-5,80,68,53,30.50,30.20,14,8,0,0.00
2013-12-7,14,5,-5,2,-3,-9,84,68,47,30.57,30.32,11,5,0,0.00
2013-12-8,18,15,11,17,11,2,94,84,65,30.30,29.80,13,6,0,0.00
2013-12-9,14,5,-1,12,-1,-6,93,78,53,30.10,29.88,15,6,0,0.00
2013-12-10,25,18,4,15,8,-4,79,65,49,30.02,29.80,18,8,0,0.00
2013-12-11,24,8,0,22,1,-6,93,73,55,30.43,30.01,16,6,0,0.00
2013-12-12,32,18,2,19,10,-4,88,69,54,30.30,29.92,11,5,0,0.00
2013-12-13,36,24,16,26,20,13,91,83,67,29.92,29.73,12,5,0,0.00
2013-12-14,24,20,13,21,16,8,93,85,74,29.97,29.83,14,8,0,0.00
2013-12-15,21,15,10,12,9,5,86,75,61,29.96,29.82,10,4,0,0.00
2013-12-16,32,22,14,26,18,10,92,86,76,29.92,29.77,8,5,0,0.00
2013-12-17,39,29,20,28,20,13,95,72,47,30.02,29.88,21,6,0,0.00
2013-12-18,51,36,19,33,26,13,83,66,49,29.97,29.54,17,5,0,0.00
2013-12-19,40,33,28,32,29,25,95,86,72,29.65,29.53,14,6,0,0.00
2013-12-20,28,24,20,26,22,18,95,93,91,29.71,29.60,12,7,0,0.00
2013-12-21,25,22,19,24,20,17,95,90,84,29.70,29.53,14,6,0,0.00
2013-12-22,25,18,4,23,14,0,95,87,80,30.14,29.56,17,10,0,0.00
2013-12-23,10,1,-10,0,-8,-16,84,65,42,30.37,30.14,14,7,0,0.00
2013-12-24,17,2,-19,16,-6,-23,93,72,57,30.37,29.99,9,4,0,0.00
2013-12-25,35,25,18,29,20,14,93,82,70,30.07,29.94,13,7,0,0.00
2013-12-26,41,29,18,26,21,13,88,74,54,30.04,29.89,12,5,0,0.02
2013-12-27,51,34,18,30,25,17,94,70,44,30.05,29.88,15,6,0,0.00
2013-12-28,51,41,26,32,29,22,85,64,46,29.88,29.58,25,8,0,0.06
2013-12-29,26,9,-2,22,0,-10,85,66,43,30.14,29.75,25,12,0,0.09
2013-12-30,17,8,-4,13,2,-10,86,77,56,30.12,29.91,11,4,0,0.00
2013-12-31,17,10,5,9,5,2,88,79,68,30.10,29.93,11,6,0,0.00